DC06 weather

MPD 2nd Metropolitan Police Department Heliport
Washington, District of Columbia, United States

Public forecast

Using degrees Fahrenheit for public forecast. Weather courtesy of forecast.io.

METAR (pilot weather report)

Closest report is Ronald Reagan Washington National Airport, 5.2 nm (9.7 km) SSE. Retrieved 2019/05/19 16:52 UTC (58 minutes ago):

KDCA 191652Z COR 17007KT 10SM SCT045 BKN250 28/21 A3000 RMK AO2 SLP158 T02830211

TAF (pilot weather forecast)

Closest forecast is Ronald Reagan Washington National Airport, 5.2 nm (9.7 km) SSE. Retrieved 2019/05/19 12:40 UTC (5 hours ago):

TAF KDCA 191138Z 1912/2018 19005KT P6SM BKN250 FM191800 18010G18KT P6SM SCT060 FM192100 18011G20KT P6SM VCTS SCT060CB FM200300 20008KT P6SM SCT060 FM201500 23010G22KT P6SM BKN060